Time;durP1;ratioP1;P1;durP2;ratioP2;P2;SDS_P1;SDS_P2;PMS_P1;PMS_P2;Temp;Humidity;BMP_temperature;BMP_pressure;BME280_temperature;BME280_humidity;BME280_pressure;Samples;Min_cycle;Max_cycle;Signal;HPM_P1;HPM_P2
2022/05/17 00:01:37;;;;;;;8.63;5.33;;;;;;;16.35;91.01;98580.09;4128687;28;20663;-92
2022/05/17 00:03:41;;;;;;;9.30;5.03;;;;;;;16.35;90.97;98581.91;4121125;28;20650;-92
2022/05/17 00:05:45;;;;;;;8.33;6.40;;;;;;;16.34;92.05;98581.09;4112047;28;21104;-90
2022/05/17 00:07:48;;;;;;;7.70;4.90;;;;;;;16.27;89.74;98574.66;4127652;28;20643;-94
2022/05/17 00:09:54;;;;;;;5.70;4.17;;;;;;;16.18;90.15;98571.94;4131129;28;20630;-93
2022/05/17 00:11:59;;;;;;;10.63;4.97;;;;;;;16.10;89.06;98576.97;4113735;28;20984;-93
2022/05/17 00:14:03;;;;;;;7.40;4.80;;;;;;;16.09;90.90;98575.31;4126345;28;20822;-93
2022/05/17 00:16:07;;;;;;;7.93;4.80;;;;;;;16.07;90.74;98577.22;4132597;28;20647;-93
2022/05/17 00:18:12;;;;;;;6.37;4.90;;;;;;;16.07;90.25;98583.34;4132932;28;21036;-93
2022/05/17 00:20:15;;;;;;;7.13;4.83;;;;;;;16.08;91.14;98579.72;4129600;28;20635;-93
2022/05/17 00:22:19;;;;;;;5.93;5.20;;;;;;;16.09;91.16;98585.84;4148612;28;20749;-94
2022/05/17 00:24:26;;;;;;;8.50;4.90;;;;;;;16.09;92.59;98580.59;4131175;28;21111;-94
2022/05/17 00:26:34;;;;;;;5.87;4.70;;;;;;;16.10;92.63;98577.81;4118198;28;20620;-94
2022/05/17 00:28:39;;;;;;;6.90;5.13;;;;;;;16.11;92.76;98581.28;4143205;28;20669;-94
2022/05/17 00:30:44;;;;;;;9.20;5.57;;;;;;;16.08;90.94;98578.91;4131939;28;21223;-93
2022/05/17 00:32:47;;;;;;;7.73;4.87;;;;;;;16.02;91.05;98578.59;4117283;28;21242;-94
2022/05/17 00:34:52;;;;;;;8.10;5.00;;;;;;;16.02;90.81;98580.22;4114962;28;20636;-95
2022/05/17 00:36:56;;;;;;;8.07;5.63;;;;;;;16.02;90.95;98588.13;4147842;28;20669;-94
2022/05/17 00:39:00;;;;;;;7.80;5.23;;;;;;;16.02;91.52;98583.84;4131143;28;20632;-95
2022/05/17 00:41:04;;;;;;;6.37;5.40;;;;;;;15.98;90.57;98587.69;4141679;28;20649;-94
2022/05/17 00:43:09;;;;;;;9.20;5.70;;;;;;;15.93;91.04;98580.16;4125102;28;20623;-92
2022/05/17 00:45:12;;;;;;;10.07;5.40;;;;;;;15.92;92.19;98583.78;4116626;28;20644;-93
2022/05/17 00:47:18;;;;;;;9.20;6.10;;;;;;;15.86;90.07;98583.41;4112194;28;20679;-93
2022/05/17 00:49:27;;;;;;;6.63;5.03;;;;;;;15.85;91.10;98576.50;4129916;28;21272;-92
2022/05/17 00:51:34;;;;;;;6.87;6.10;;;;;;;15.83;91.26;98581.03;4132610;28;20734;-92
2022/05/17 00:53:38;;;;;;;8.47;6.43;;;;;;;15.82;90.52;98582.84;4118710;28;20640;-92
2022/05/17 00:55:44;;;;;;;7.93;5.70;;;;;;;15.83;90.68;98583.66;4121320;28;20636;-92
2022/05/17 00:57:51;;;;;;;6.97;5.43;;;;;;;15.83;90.95;98584.53;4128916;28;20633;-93
2022/05/17 00:59:57;;;;;;;8.60;5.80;;;;;;;15.81;92.22;98577.69;4108218;28;20682;-92
2022/05/17 01:02:00;;;;;;;6.40;4.90;;;;;;;15.75;91.23;98576.41;4130283;28;20659;-92
2022/05/17 01:04:08;;;;;;;5.80;5.20;;;;;;;15.70;91.67;98575.94;4112249;28;20699;-93
2022/05/17 01:06:12;;;;;;;6.23;5.60;;;;;;;15.67;90.30;98570.94;4113622;28;20659;-92
2022/05/17 01:08:17;;;;;;;6.63;5.60;;;;;;;15.69;90.30;98576.88;4130429;28;21201;-92
2022/05/17 01:10:23;;;;;;;6.90;5.23;;;;;;;15.70;92.07;98570.69;4115852;28;20639;-92
2022/05/17 01:12:26;;;;;;;9.57;5.30;;;;;;;15.68;91.18;98569.97;4128661;28;20667;-92
2022/05/17 01:16:52;;;;;;;7.53;5.80;;;;;;;15.66;92.66;98571.88;4122351;28;20640;-92
2022/05/17 01:18:56;;;;;;;6.33;5.50;;;;;;;15.62;91.23;98578.38;4146098;28;20684;-92
2022/05/17 01:21:02;;;;;;;7.20;5.80;;;;;;;15.61;91.29;98578.47;4134774;28;20623;-92
2022/05/17 01:23:06;;;;;;;9.57;6.10;;;;;;;15.57;90.93;98566.53;4115898;28;20655;-92
2022/05/17 01:25:10;;;;;;;7.13;6.07;;;;;;;15.51;90.54;98574.91;4112783;28;20631;-92
2022/05/17 01:27:16;;;;;;;10.27;5.63;;;;;;;15.47;91.07;98575.28;4111215;28;20714;-91
2022/05/17 01:29:20;;;;;;;8.10;5.80;;;;;;;15.45;90.28;98577.19;4114492;28;20716;-93
2022/05/17 01:31:23;;;;;;;7.33;6.07;;;;;;;15.43;91.54;98571.25;4129724;28;20636;-93
2022/05/17 01:33:27;;;;;;;10.00;5.70;;;;;;;15.40;92.16;98569.69;4126957;28;20624;-92
2022/05/17 01:35:31;;;;;;;7.30;6.13;;;;;;;15.40;91.82;98577.56;4129609;28;20630;-92
2022/05/17 01:37:36;;;;;;;10.03;6.10;;;;;;;15.39;91.14;98578.53;4148449;28;20715;-92
2022/05/17 01:39:40;;;;;;;10.50;6.03;;;;;;;15.36;91.48;98572.69;4130426;28;21039;-92
2022/05/17 01:41:43;;;;;;;8.20;6.27;;;;;;;15.35;92.26;98568.38;4115098;28;20640;-92
2022/05/17 01:43:47;;;;;;;8.87;6.20;;;;;;;15.34;91.79;98570.16;4115844;28;20652;-92
2022/05/17 01:45:51;;;;;;;8.63;6.10;;;;;;;15.33;92.10;98570.28;4114685;28;20633;-92
2022/05/17 01:47:55;;;;;;;10.47;6.73;;;;;;;15.29;91.13;98576.75;4131763;28;20729;-92
2022/05/17 01:49:59;;;;;;;14.50;7.13;;;;;;;15.26;90.93;98569.09;4115662;28;20648;-92
2022/05/17 01:52:02;;;;;;;8.40;6.40;;;;;;;15.24;91.96;98574.47;4127540;28;20631;-91
2022/05/17 01:54:07;;;;;;;8.27;6.00;;;;;;;15.25;90.66;98564.81;4130482;28;20635;-92
2022/05/17 01:56:11;;;;;;;10.17;6.07;;;;;;;15.23;91.43;98566.72;4125452;28;20619;-92
2022/05/17 01:58:14;;;;;;;8.67;6.30;;;;;;;15.19;90.53;98571.38;4146038;28;20667;-92
2022/05/17 02:00:20;;;;;;;7.43;6.30;;;;;;;15.17;90.46;98567.22;4131125;28;20627;-92
2022/05/17 02:02:23;;;;;;;9.57;6.50;;;;;;;15.17;92.20;98565.44;4129914;28;21226;-92
2022/05/17 02:04:27;;;;;;;7.47;5.50;;;;;;;15.16;91.63;98568.13;4130548;28;20718;-91
2022/05/17 02:06:31;;;;;;;7.03;6.17;;;;;;;15.13;91.98;98566.59;4146384;28;20622;-92
2022/05/17 02:08:35;;;;;;;10.80;6.27;;;;;;;15.12;92.38;98574.59;4135102;28;20646;-92
2022/05/17 02:10:40;;;;;;;7.83;6.60;;;;;;;15.11;91.28;98565.03;4120976;28;20624;-92
2022/05/17 02:12:44;;;;;;;9.63;6.03;;;;;;;15.08;90.92;98568.75;4124038;28;21495;-92
2022/05/17 02:14:47;;;;;;;7.20;5.57;;;;;;;15.04;91.25;98569.09;4109948;28;20709;-92
2022/05/17 02:16:51;;;;;;;9.03;5.97;;;;;;;15.04;91.28;98571.72;4141433;28;20718;-92
2022/05/17 02:18:56;;;;;;;7.13;5.83;;;;;;;15.01;92.22;98576.41;4132579;28;20648;-92
2022/05/17 02:21:00;;;;;;;7.00;6.27;;;;;;;14.97;90.63;98574.94;4127970;28;20670;-92
2022/05/17 02:23:03;;;;;;;9.33;5.97;;;;;;;14.95;91.06;98574.25;4112757;28;20759;-92
2022/05/17 02:25:08;;;;;;;9.80;6.60;;;;;;;14.96;91.24;98576.75;4110140;28;20716;-91
2022/05/17 02:27:13;;;;;;;11.53;6.80;;;;;;;14.92;90.68;98579.75;4126123;28;21005;-91
2022/05/17 02:29:16;;;;;;;8.40;6.53;;;;;;;14.90;91.56;98571.97;4125516;28;20635;-92
2022/05/17 02:31:20;;;;;;;8.30;6.30;;;;;;;14.87;91.42;98577.47;4126871;28;20628;-92
2022/05/17 02:33:23;;;;;;;7.23;6.33;;;;;;;14.84;90.75;98576.84;4141434;28;20626;-92
2022/05/17 02:35:27;;;;;;;9.03;6.97;;;;;;;14.81;90.65;98567.44;4128621;28;20737;-92
2022/05/17 02:37:30;;;;;;;8.90;6.57;;;;;;;14.78;90.71;98572.94;4130650;28;20655;-92
2022/05/17 02:39:34;;;;;;;8.27;6.37;;;;;;;14.77;91.44;98583.56;4147283;28;21219;-92
2022/05/17 02:41:37;;;;;;;9.40;6.90;;;;;;;14.76;91.63;98577.47;4112147;28;21225;-92
2022/05/17 02:43:43;;;;;;;11.17;6.80;;;;;;;14.74;90.79;98579.34;4112774;28;20710;-92
2022/05/17 02:45:46;;;;;;;10.37;7.00;;;;;;;14.75;91.39;98583.66;4125943;28;20726;-92
2022/05/17 02:47:50;;;;;;;10.00;7.07;;;;;;;14.73;91.26;98579.47;4128963;28;20722;-92
2022/05/17 02:49:54;;;;;;;8.67;6.37;;;;;;;14.71;91.11;98587.47;4116891;28;20641;-92
2022/05/17 02:52:01;;;;;;;8.10;7.07;;;;;;;14.72;91.64;98590.97;4129615;28;20690;-92
2022/05/17 02:54:06;;;;;;;12.63;7.07;;;;;;;14.70;91.23;98591.06;4145119;28;20630;-92
2022/05/17 02:56:10;;;;;;;9.30;7.40;;;;;;;14.71;91.18;98595.34;4134175;28;20645;-92
2022/05/17 02:58:14;;;;;;;10.23;7.67;;;;;;;14.68;91.71;98590.34;4130285;28;21217;-92
2022/05/17 03:00:20;;;;;;;8.30;7.50;;;;;;;14.67;91.89;98593.06;4127014;28;20643;-92
2022/05/17 03:02:23;;;;;;;8.40;7.50;;;;;;;14.62;90.72;98598.69;4127508;28;21213;-92
2022/05/17 03:04:28;;;;;;;8.33;7.37;;;;;;;14.60;91.72;98597.16;4128456;28;20660;-92
2022/05/17 03:06:32;;;;;;;10.20;8.07;;;;;;;14.59;91.69;98598.91;4114597;28;20629;-92
2022/05/17 03:08:36;;;;;;;11.80;7.80;;;;;;;14.59;91.06;98595.47;4126944;28;20635;-92
2022/05/17 03:10:39;;;;;;;8.93;7.20;;;;;;;14.55;91.48;98591.38;4127092;28;20638;-92
2022/05/17 03:12:43;;;;;;;9.67;7.10;;;;;;;14.53;92.29;98593.28;4132441;28;20634;-92
2022/05/17 03:14:46;;;;;;;8.13;6.83;;;;;;;14.54;92.13;98599.38;4128786;28;20635;-92
2022/05/17 03:16:51;;;;;;;9.20;7.70;;;;;;;14.51;91.97;98597.84;4115077;28;20647;-92
2022/05/17 03:18:55;;;;;;;8.07;7.27;;;;;;;14.51;91.49;98602.22;4131774;28;20623;-92
2022/05/17 03:20:58;;;;;;;8.37;6.87;;;;;;;14.51;91.51;98610.09;4127908;28;20662;-91
2022/05/17 03:23:02;;;;;;;10.07;7.60;;;;;;;14.49;91.35;98606.78;4144620;28;20682;-92
2022/05/17 03:25:07;;;;;;;10.57;7.80;;;;;;;14.49;91.70;98604.97;4128614;28;20635;-92
2022/05/17 03:27:27;;;;;;;10.17;7.17;;;;;;;14.45;92.06;98607.94;4138332;28;21210;-92
2022/05/17 03:29:31;;;;;;;9.40;6.90;;;;;;;14.45;91.79;98613.19;4127780;28;20995;-91
2022/05/17 03:31:35;;;;;;;8.43;7.53;;;;;;;14.42;91.21;98610.84;4124757;28;21074;-92
2022/05/17 03:33:41;;;;;;;8.43;7.27;;;;;;;14.42;92.00;98621.31;4113957;28;21050;-92
2022/05/17 03:35:44;;;;;;;11.10;7.40;;;;;;;14.40;91.30;98620.59;4114452;28;21200;-92
2022/05/17 03:37:48;;;;;;;8.90;7.57;;;;;;;14.37;91.60;98615.56;4141676;28;20635;-91
2022/05/17 03:39:52;;;;;;;12.57;7.60;;;;;;;14.35;92.04;98620.94;4130024;28;20661;-92
2022/05/17 03:41:56;;;;;;;13.37;7.40;;;;;;;14.34;91.76;98621.03;4146572;28;20729;-91
2022/05/17 03:44:00;;;;;;;10.27;8.30;;;;;;;14.33;92.18;98619.38;4126752;28;23800;-92
2022/05/17 03:46:04;;;;;;;10.73;8.40;;;;;;;14.34;92.12;98631.53;4125171;28;20647;-91
2022/05/17 03:48:08;;;;;;;8.77;7.43;;;;;;;14.33;92.80;98625.47;4143900;28;20639;-91
2022/05/17 03:50:13;;;;;;;11.07;8.13;;;;;;;14.31;92.18;98626.53;4128261;28;20646;-92
2022/05/17 03:52:17;;;;;;;7.93;5.90;;;;;;;14.18;89.88;98621.34;4128026;28;20634;-91
2022/05/17 03:54:22;;;;;;;8.00;6.47;;;;;;;14.13;90.01;98618.25;4131151;28;20658;-91
2022/05/17 03:56:26;;;;;;;9.17;6.50;;;;;;;14.10;89.79;98617.63;4110175;28;20655;-91
2022/05/17 03:58:29;;;;;;;7.70;6.10;;;;;;;14.10;90.16;98620.25;4124718;28;20734;-91
2022/05/17 04:00:33;;;;;;;7.77;6.97;;;;;;;14.12;91.10;98622.75;4113114;28;20627;-91
2022/05/17 04:02:37;;;;;;;9.23;6.90;;;;;;;14.15;91.01;98628.63;4122003;28;20742;-91
2022/05/17 04:04:41;;;;;;;9.57;7.40;;;;;;;14.16;92.02;98632.91;4126514;28;20682;-92
2022/05/17 04:06:46;;;;;;;13.47;8.00;;;;;;;14.19;91.32;98630.06;4124474;28;20996;-92
2022/05/17 04:08:50;;;;;;;11.73;8.13;;;;;;;14.24;91.49;98635.81;4127565;28;20646;-92
2022/05/17 04:10:53;;;;;;;10.80;7.93;;;;;;;14.28;91.92;98632.00;4124506;28;20723;-92
2022/05/17 04:12:57;;;;;;;10.90;7.73;;;;;;;14.31;91.96;98637.88;4112263;28;20648;-92
2022/05/17 04:15:00;;;;;;;8.07;7.10;;;;;;;14.34;92.80;98631.53;4129591;28;20694;-92
2022/05/17 04:17:05;;;;;;;10.77;7.53;;;;;;;14.38;92.70;98639.06;4111959;28;20636;-91
2022/05/17 04:19:09;;;;;;;11.47;7.23;;;;;;;14.43;92.89;98639.56;4133439;28;20623;-92
2022/05/17 04:21:13;;;;;;;10.07;7.60;;;;;;;14.45;92.63;98636.81;4112731;28;20679;-92
2022/05/17 04:23:18;;;;;;;8.97;8.07;;;;;;;14.47;92.11;98641.00;4129520;28;21209;-91
2022/05/17 04:25:24;;;;;;;9.60;7.70;;;;;;;14.51;92.51;98652.09;4129816;28;21007;-92
2022/05/17 04:27:28;;;;;;;8.40;6.93;;;;;;;14.50;91.39;98651.28;4131287;28;20811;-92
2022/05/17 04:29:31;;;;;;;11.23;6.77;;;;;;;14.45;91.25;98656.03;4131724;28;21189;-92
2022/05/17 04:31:35;;;;;;;8.70;7.10;;;;;;;14.47;90.43;98653.31;4145575;28;20669;-92
2022/05/17 04:33:39;;;;;;;8.93;7.73;;;;;;;14.52;91.68;98653.78;4148045;28;20983;-92
2022/05/17 04:35:44;;;;;;;9.83;8.20;;;;;;;14.57;92.08;98654.28;4114971;28;21147;-92
2022/05/17 04:37:47;;;;;;;14.10;7.33;;;;;;;14.63;92.93;98660.75;4129683;28;20633;-92
2022/05/17 04:39:52;;;;;;;9.90;7.80;;;;;;;14.68;92.92;98655.97;4131444;28;20650;-92
2022/05/17 04:41:56;;;;;;;9.57;8.07;;;;;;;14.73;92.34;98660.88;4131863;28;21207;-92
2022/05/17 04:43:59;;;;;;;9.10;8.20;;;;;;;14.78;92.38;98667.47;4114334;28;20659;-92
2022/05/17 04:46:03;;;;;;;8.10;7.30;;;;;;;14.84;92.58;98671.41;4116710;28;20620;-92
2022/05/17 04:48:07;;;;;;;10.63;6.70;;;;;;;14.85;91.94;98673.91;4114234;28;20628;-92
2022/05/17 04:50:12;;;;;;;10.33;8.23;;;;;;;14.85;91.95;98673.09;4128782;28;20742;-92
2022/05/17 04:52:16;;;;;;;9.90;7.50;;;;;;;14.81;90.68;98675.13;4145508;28;20637;-91
2022/05/17 04:54:19;;;;;;;10.70;8.10;;;;;;;14.83;91.60;98678.44;4132638;28;20751;-92
2022/05/17 04:56:25;;;;;;;9.37;6.67;;;;;;;14.84;92.10;98674.88;4130616;28;20647;-92
2022/05/17 04:58:29;;;;;;;7.30;6.37;;;;;;;14.84;90.77;98680.13;4148151;28;20646;-92
2022/05/17 05:00:36;;;;;;;9.83;7.10;;;;;;;14.86;91.45;98686.09;4118080;28;20624;-92
2022/05/17 05:02:39;;;;;;;8.30;7.20;;;;;;;14.89;90.81;98685.03;4131200;28;20645;-92
2022/05/17 05:04:43;;;;;;;9.23;8.00;;;;;;;14.91;92.18;98686.56;4132135;28;20665;-92
2022/05/17 05:06:46;;;;;;;8.47;7.03;;;;;;;14.94;91.98;98688.97;4129628;28;20639;-90
2022/05/17 05:08:50;;;;;;;8.40;7.33;;;;;;;14.99;92.57;98691.25;4146039;28;20655;-88
2022/05/17 05:10:53;;;;;;;9.80;7.33;;;;;;;15.05;92.83;98693.41;4146327;28;20705;-92
2022/05/17 05:12:58;;;;;;;13.83;8.23;;;;;;;15.13;92.28;98686.63;4131001;28;20619;-92
2022/05/17 05:15:02;;;;;;;12.70;9.27;;;;;;;15.23;92.64;98690.22;4127915;28;20667;-88
2022/05/17 05:17:06;;;;;;;9.23;8.13;;;;;;;15.25;91.26;98691.78;4129349;28;20641;-89
2022/05/17 05:19:10;;;;;;;10.63;7.97;;;;;;;15.32;92.25;98702.66;4122812;28;21611;-89
2022/05/17 05:21:15;;;;;;;9.63;7.80;;;;;;;15.39;92.77;98702.06;4129535;28;20622;-90
2022/05/17 05:23:18;;;;;;;10.30;8.37;;;;;;;15.48;94.11;98705.78;4119827;28;20664;-90
2022/05/17 05:25:22;;;;;;;13.23;8.63;;;;;;;15.54;92.81;98702.69;4131440;28;20655;-90
2022/05/17 05:27:26;;;;;;;14.17;8.50;;;;;;;15.62;94.31;98706.38;4132514;28;20634;-89
2022/05/17 05:29:30;;;;;;;10.83;8.80;;;;;;;15.72;93.06;98712.59;4134101;28;20714;-91
2022/05/17 05:31:34;;;;;;;11.17;8.33;;;;;;;15.85;93.26;98714.13;4130986;28;20626;-88
2022/05/17 05:33:39;;;;;;;10.33;8.57;;;;;;;16.03;93.23;98707.41;4127816;28;20706;-87
2022/05/17 05:35:42;;;;;;;9.90;8.67;;;;;;;16.24;92.12;98710.97;4129470;28;21052;-87
2022/05/17 05:37:45;;;;;;;10.33;8.70;;;;;;;16.51;91.00;98705.13;4125010;28;20659;-87
2022/05/17 05:39:49;;;;;;;9.70;8.70;;;;;;;16.79;89.79;98709.75;4113561;28;20652;-86
2022/05/17 05:41:53;;;;;;;11.20;8.43;;;;;;;17.07;89.12;98714.41;4146876;28;20642;-88
2022/05/17 05:43:57;;;;;;;11.03;8.70;;;;;;;17.36;89.01;98708.34;4143252;28;20676;-89
2022/05/17 05:46:01;;;;;;;10.60;9.00;;;;;;;17.66;88.80;98703.06;4140965;28;20667;-87
2022/05/17 05:48:06;;;;;;;11.17;8.73;;;;;;;17.92;87.90;98712.19;4148200;28;20625;-86
2022/05/17 05:50:10;;;;;;;11.47;8.97;;;;;;;18.23;87.63;98714.66;4133065;28;20631;-88
2022/05/17 05:52:14;;;;;;;9.40;8.50;;;;;;;18.50;86.69;98711.19;4131593;28;21099;-87
2022/05/17 05:54:17;;;;;;;9.30;8.40;;;;;;;18.75;86.02;98725.66;4143820;28;20641;-88
2022/05/17 05:56:21;;;;;;;10.30;8.47;;;;;;;18.95;84.72;98721.06;4133473;28;20646;-88
2022/05/17 05:58:24;;;;;;;11.13;8.33;;;;;;;19.23;85.53;98717.59;4131926;28;20659;-88
2022/05/17 06:00:28;;;;;;;10.47;8.43;;;;;;;19.50;84.08;98729.06;4125747;28;20624;-88
2022/05/17 06:02:33;;;;;;;12.30;8.00;;;;;;;19.69;82.30;98730.81;4143792;28;20725;-88
2022/05/17 06:04:37;;;;;;;13.17;8.97;;;;;;;19.91;81.65;98726.84;4152097;28;20676;-92
2022/05/17 06:06:42;;;;;;;12.13;8.93;;;;;;;20.11;80.82;98736.34;4114598;28;20629;-92
2022/05/17 06:08:45;;;;;;;13.93;8.83;;;;;;;20.29;80.44;98733.75;4133625;28;20986;-92
2022/05/17 06:10:49;;;;;;;10.07;8.30;;;;;;;20.43;81.56;98731.41;4129983;28;20667;-91
2022/05/17 06:12:52;;;;;;;13.23;8.77;;;;;;;20.52;79.44;98727.84;4149970;28;20614;-89
2022/05/17 06:14:56;;;;;;;9.90;7.30;;;;;;;20.63;79.40;98723.19;4139568;28;21336;-89
2022/05/17 06:16:59;;;;;;;9.57;7.70;;;;;;;20.85;81.99;98726.25;4128849;28;20672;-89
2022/05/17 06:19:04;;;;;;;8.10;6.97;;;;;;;21.16;81.90;98724.00;4125673;28;20726;-91
2022/05/17 06:21:07;;;;;;;8.50;7.00;;;;;;;21.32;78.81;98717.81;4131197;28;21075;-89
2022/05/17 06:23:10;;;;;;;7.90;7.10;;;;;;;21.47;78.22;98728.72;4128300;28;20659;-86
2022/05/17 06:25:14;;;;;;;9.70;7.43;;;;;;;21.68;77.71;98723.88;4128108;28;20979;-87
2022/05/17 06:27:18;;;;;;;8.30;7.40;;;;;;;21.90;79.13;98726.81;4110621;28;20637;-88
2022/05/17 06:29:21;;;;;;;9.60;7.20;;;;;;;22.09;77.61;98729.22;4110272;28;20640;-87
2022/05/17 06:31:24;;;;;;;10.70;7.73;;;;;;;22.23;76.84;98732.94;4131768;28;20638;-87
2022/05/17 06:33:28;;;;;;;10.87;6.77;;;;;;;22.38;76.68;98733.16;4124146;28;21051;-87
2022/05/17 06:35:35;;;;;;;9.80;6.90;;;;;;;22.43;76.52;98729.03;4123867;28;21231;-85
2022/05/17 06:37:38;;;;;;;13.47;6.63;;;;;;;22.63;76.09;98730.41;4123829;28;21257;-85
2022/05/17 06:39:42;;;;;;;7.70;6.90;;;;;;;22.77;77.25;98732.41;4128524;28;21270;-85
2022/05/17 06:41:45;;;;;;;8.43;6.80;;;;;;;22.93;76.52;98735.97;4125649;28;20631;-84
2022/05/17 06:43:49;;;;;;;8.47;7.30;;;;;;;23.12;75.84;98735.63;4142636;28;20973;-86
2022/05/17 06:45:52;;;;;;;8.13;7.30;;;;;;;23.29;75.45;98724.81;4138635;28;20663;-86
2022/05/17 06:47:55;;;;;;;9.30;7.30;;;;;;;23.46;75.16;98742.41;4122389;28;21250;-86
2022/05/17 06:49:59;;;;;;;7.53;6.83;;;;;;;23.50;74.20;98735.78;4109508;28;20632;-86
2022/05/17 06:52:06;;;;;;;10.07;7.50;;;;;;;23.63;74.55;98737.91;4122474;28;20635;-86
2022/05/17 06:54:16;;;;;;;8.93;7.00;;;;;;;23.60;74.51;98731.06;4108064;28;20659;-86
2022/05/17 06:56:19;;;;;;;7.83;7.03;;;;;;;23.71;74.36;98736.91;4109030;28;20633;-86
2022/05/17 06:58:23;;;;;;;8.37;7.37;;;;;;;23.77;75.39;98741.56;4124002;28;21381;-86
2022/05/17 07:00:27;;;;;;;10.83;8.00;;;;;;;23.91;74.21;98748.03;4122206;28;20742;-87
2022/05/17 07:02:30;;;;;;;8.30;7.07;;;;;;;24.02;74.69;98743.13;4127654;28;20642;-86
2022/05/17 07:04:34;;;;;;;7.90;6.13;;;;;;;24.14;71.90;98738.28;4128237;28;21347;-86
2022/05/17 07:06:38;;;;;;;8.57;6.33;;;;;;;24.16;73.33;98743.25;4109262;28;20743;-86
2022/05/17 07:08:43;;;;;;;8.60;6.53;;;;;;;24.26;72.54;98737.72;4108830;28;20643;-86
2022/05/17 07:13:12;;;;;;;8.80;6.70;;;;;;;24.44;72.46;98739.16;4106314;28;20666;-86
2022/05/17 07:15:15;;;;;;;9.30;6.60;;;;;;;24.56;70.77;98736.94;4144115;28;20645;-86
2022/05/17 07:17:21;;;;;;;9.27;7.57;;;;;;;24.61;70.18;98734.56;4133799;28;20642;-86
2022/05/17 07:19:24;;;;;;;7.83;6.37;;;;;;;24.73;70.47;98736.63;4123462;28;20638;-86
2022/05/17 07:21:35;;;;;;;8.30;6.90;;;;;;;24.92;70.23;98736.19;4122771;28;21170;-86
2022/05/17 07:23:40;;;;;;;8.93;7.20;;;;;;;25.07;70.53;98737.91;4141519;28;20623;-86
2022/05/17 07:25:46;;;;;;;10.00;7.10;;;;;;;25.08;68.70;98736.94;4138916;28;21131;-86
2022/05/17 07:27:50;;;;;;;15.73;14.03;;;;;;;25.11;69.83;98735.72;4139349;28;21017;-87
2022/05/17 07:29:54;;;;;;;9.10;6.80;;;;;;;25.20;70.73;98738.16;4105899;28;20631;-86
2022/05/17 07:31:58;;;;;;;8.80;6.80;;;;;;;25.31;69.91;98735.06;4126758;28;20648;-86
2022/05/17 07:34:01;;;;;;;7.97;7.07;;;;;;;25.42;68.76;98735.44;4126924;28;20682;-86
2022/05/17 07:36:06;;;;;;;6.53;5.80;;;;;;;25.58;67.85;98729.13;4111144;28;21235;-87
2022/05/17 07:38:09;;;;;;;9.87;6.47;;;;;;;25.76;68.06;98725.13;4126445;28;20999;-86
2022/05/17 07:40:13;;;;;;;9.47;6.37;;;;;;;25.90;69.19;98732.31;4125678;28;20735;-87
2022/05/17 07:42:18;;;;;;;7.77;6.33;;;;;;;26.07;67.43;98731.09;4122897;28;20627;-86
2022/05/17 07:44:22;;;;;;;7.73;6.70;;;;;;;26.12;66.82;98735.69;4125016;28;20647;-87
2022/05/17 07:46:25;;;;;;;11.73;6.30;;;;;;;26.17;65.70;98735.16;4138273;28;20757;-87
2022/05/17 07:48:28;;;;;;;7.20;6.10;;;;;;;26.20;65.44;98738.28;4107088;28;20775;-86
2022/05/17 07:50:32;;;;;;;10.70;6.57;;;;;;;26.32;65.68;98736.00;4121414;28;20631;-86
2022/05/17 07:52:38;;;;;;;7.80;7.00;;;;;;;26.50;65.65;98737.25;4122051;28;20754;-86
2022/05/17 07:54:43;;;;;;;7.47;5.83;;;;;;;26.63;65.15;98738.22;4139854;28;20639;-86
2022/05/17 07:56:46;;;;;;;7.33;6.10;;;;;;;26.65;63.43;98738.84;4121353;28;20649;-86
2022/05/17 07:58:51;;;;;;;10.70;7.43;;;;;;;26.74;64.69;98735.06;4126401;28;20670;-87
2022/05/17 08:00:54;;;;;;;8.03;5.90;;;;;;;26.72;65.03;98733.59;4110143;28;21226;-86
2022/05/17 08:02:58;;;;;;;8.83;5.70;;;;;;;26.79;63.87;98729.13;4128487;28;20672;-86
2022/05/17 08:05:02;;;;;;;8.47;5.80;;;;;;;26.91;65.57;98733.00;4128032;28;20703;-86
2022/05/17 08:07:05;;;;;;;7.00;6.30;;;;;;;26.95;64.86;98729.75;4127872;28;20666;-86
2022/05/17 08:09:09;;;;;;;6.67;5.90;;;;;;;27.09;64.96;98726.16;4142595;28;20634;-86
2022/05/17 08:11:14;;;;;;;6.20;5.60;;;;;;;27.16;64.07;98732.44;4143274;28;20688;-86
2022/05/17 08:13:18;;;;;;;10.50;5.63;;;;;;;27.26;64.82;98723.03;4126962;28;21199;-86
2022/05/17 08:15:24;;;;;;;6.17;4.90;;;;;;;27.31;63.92;98725.97;4124810;28;20751;-86
2022/05/17 08:17:34;;;;;;;8.73;5.40;;;;;;;27.25;61.91;98721.38;4107330;28;20668;-86
2022/05/17 08:19:38;;;;;;;5.67;5.10;;;;;;;27.29;61.21;98719.13;4126375;28;20631;-87
2022/05/17 08:21:41;;;;;;;7.40;4.83;;;;;;;27.38;61.27;98720.63;4124746;28;20639;-86
2022/05/17 08:23:45;;;;;;;7.17;5.10;;;;;;;27.27;59.66;98715.81;4126624;28;20642;-87
2022/05/17 08:28:10;;;;;;;10.37;5.20;;;;;;;27.31;62.36;98715.22;4116376;28;20631;-86
2022/05/17 08:30:17;;;;;;;5.90;4.80;;;;;;;27.46;62.75;98724.03;4134054;28;21061;-86
2022/05/17 08:34:46;;;;;;;7.30;5.13;;;;;;;27.55;60.60;98725.56;4143816;28;20627;-87
2022/05/17 08:36:50;;;;;;;5.77;5.10;;;;;;;27.59;61.67;98729.53;4109157;28;20679;-87
2022/05/17 08:38:53;;;;;;;6.27;4.60;;;;;;;27.66;61.05;98723.19;4126071;28;20635;-86
2022/05/17 08:41:23;;;;;;;8.90;4.90;;;;;;;27.80;63.05;98724.94;4141821;28;20772;-87
2022/05/17 08:43:31;;;;;;;7.00;4.63;;;;;;;27.88;61.87;98729.31;4110617;28;20630;-86
2022/05/17 08:45:40;;;;;;;5.67;4.50;;;;;;;28.01;59.67;98719.50;4126287;28;20664;-86
2022/05/17 08:47:51;;;;;;;6.37;4.37;;;;;;;28.11;62.14;98731.53;4108954;28;20651;-86
2022/05/17 08:50:06;;;;;;;6.93;4.80;;;;;;;28.22;60.10;98725.63;4126022;28;21065;-86
2022/05/17 08:52:12;;;;;;;8.90;4.90;;;;;;;28.25;62.08;98727.91;4121914;28;20631;-86
2022/05/17 08:54:18;;;;;;;7.37;5.60;;;;;;;28.33;60.45;98716.16;4125432;28;21149;-87
2022/05/17 08:56:22;;;;;;;6.67;4.87;;;;;;;28.31;60.65;98718.19;4126313;28;20663;-87
2022/05/17 08:58:29;;;;;;;7.40;4.63;;;;;;;28.30;58.79;98717.38;4126663;28;20637;-87
2022/05/17 09:00:43;;;;;;;7.53;5.10;;;;;;;28.33;59.72;98714.28;4109387;28;21423;-86
2022/05/17 09:02:51;;;;;;;6.00;4.40;;;;;;;28.17;62.41;98714.63;4123966;28;22161;-86
2022/05/17 09:05:05;;;;;;;6.07;5.07;;;;;;;28.15;60.40;98714.00;4122493;28;20618;-86
2022/05/17 09:07:17;;;;;;;6.83;5.17;;;;;;;28.12;60.61;98717.09;4143631;28;20752;-86
2022/05/17 09:09:25;;;;;;;6.60;4.70;;;;;;;28.18;60.04;98712.78;4138456;28;20630;-86
2022/05/17 09:11:38;;;;;;;7.63;4.70;;;;;;;28.00;56.59;98713.28;4125339;28;20702;-87
2022/05/17 09:13:48;;;;;;;7.20;4.40;;;;;;;27.95;59.83;98712.22;4128849;28;20685;-92
2022/05/17 09:16:11;;;;;;;8.00;4.60;;;;;;;27.97;56.23;98706.66;4130805;28;24539;-92
2022/05/17 09:18:18;;;;;;;9.20;5.40;;;;;;;27.78;57.99;98704.69;4140388;28;20715;-91
2022/05/17 09:20:23;;;;;;;6.50;4.50;;;;;;;27.70;57.96;98700.28;4142427;28;21228;-91
2022/05/17 09:22:27;;;;;;;5.13;4.40;;;;;;;27.77;61.00;98708.38;4129221;28;20698;-92
2022/05/17 09:24:36;;;;;;;5.80;4.00;;;;;;;27.90;57.23;98698.56;4128868;28;20666;-91
2022/05/17 09:26:40;;;;;;;7.63;4.07;;;;;;;27.88;57.44;98705.16;4140044;28;20638;-91
2022/05/17 09:28:51;;;;;;;5.93;4.30;;;;;;;27.73;56.43;98701.78;4130334;28;20658;-92
2022/05/17 09:31:08;;;;;;;6.27;3.80;;;;;;;27.37;55.38;98698.38;4125362;28;21063;-91
2022/05/17 09:33:16;;;;;;;8.20;4.20;;;;;;;27.20;55.81;98691.66;4127880;28;20635;-91
2022/05/17 09:35:21;;;;;;;5.37;4.53;;;;;;;27.11;55.92;98703.53;4139815;28;21762;-92
2022/05/17 09:37:32;;;;;;;9.40;4.73;;;;;;;27.26;58.42;98693.56;4109015;28;20648;-92
2022/05/17 09:39:36;;;;;;;4.30;3.80;;;;;;;27.51;59.83;98702.03;4139512;28;20646;-91
2022/05/17 09:41:41;;;;;;;3.87;3.40;;;;;;;27.70;60.06;98702.16;4126108;28;20726;-90
2022/05/17 09:44:06;;;;;;;7.17;4.00;;;;;;;27.82;59.40;98701.41;4129302;28;20739;-91
2022/05/17 09:46:10;;;;;;;8.50;3.90;;;;;;;27.86;59.26;98697.31;4106934;28;20631;-91
2022/05/17 09:48:27;;;;;;;6.40;3.80;;;;;;;27.89;58.84;98698.75;4146420;28;21289;-93
2022/05/17 09:53:01;;;;;;;7.10;4.20;;;;;;;28.01;59.85;98692.66;4126592;28;20632;-91
2022/05/17 09:55:15;;;;;;;4.80;3.67;;;;;;;28.08;59.13;98698.88;4132705;28;20627;-92
2022/05/17 09:57:22;;;;;;;9.27;4.20;;;;;;;28.13;61.30;98702.66;4134006;28;20639;-92
2022/05/17 09:59:26;;;;;;;5.20;4.20;;;;;;;28.16;58.43;98696.88;4148317;28;20638;-92